Time;durP1;ratioP1;P1;durP2;ratioP2;P2;SDS_P1;SDS_P2;PMS_P1;PMS_P2;Temp;Humidity;BMP_temperature;BMP_pressure;BME280_temperature;BME280_humidity;BME280_pressure;Samples;Min_cycle;Max_cycle;Signal;HPM_P1;HPM_P2
2022/03/01 00:00:29;;;;;;;24.02;15.80;;;6.10;65.40;;;;;;4965699;28;20071;-73
2022/03/01 00:02:55;;;;;;;20.77;14.82;;;6.00;65.20;;;;;;4969955;28;20563;-73
2022/03/01 00:05:21;;;;;;;22.45;15.02;;;6.00;65.20;;;;;;4965660;28;20105;-74
2022/03/01 00:07:46;;;;;;;21.13;15.60;;;6.00;65.30;;;;;;4962569;28;20034;-74
2022/03/01 00:10:12;;;;;;;21.83;15.63;;;6.00;65.20;;;;;;4975858;28;20053;-73
2022/03/01 00:12:38;;;;;;;24.25;14.88;;;5.90;65.20;;;;;;4960222;28;20855;-74
2022/03/01 00:15:05;;;;;;;23.02;15.60;;;5.90;65.40;;;;;;4962411;28;20035;-74
2022/03/01 00:17:31;;;;;;;23.95;16.67;;;5.90;65.40;;;;;;4947334;28;20055;-73
2022/03/01 00:19:56;;;;;;;21.75;15.85;;;5.90;65.70;;;;;;4971017;28;20065;-73
2022/03/01 00:22:22;;;;;;;24.92;17.08;;;5.90;65.70;;;;;;4964514;28;20628;-73
2022/03/01 00:24:47;;;;;;;24.08;17.13;;;5.90;65.70;;;;;;4960548;28;20446;-73
2022/03/01 00:27:13;;;;;;;22.48;16.33;;;5.80;65.70;;;;;;4944389;28;20038;-75
2022/03/01 00:29:39;;;;;;;23.58;15.65;;;5.90;65.30;;;;;;4965748;28;20523;-73
2022/03/01 00:32:05;;;;;;;23.48;17.10;;;5.90;65.30;;;;;;4974620;28;20784;-73
2022/03/01 00:34:31;;;;;;;25.80;17.55;;;5.90;65.30;;;;;;4969988;28;20050;-73
2022/03/01 00:36:56;;;;;;;22.58;15.90;;;6.00;65.30;;;;;;4971122;28;20034;-74
2022/03/01 00:39:22;;;;;;;22.70;16.35;;;5.90;65.10;;;;;;4959669;28;20139;-75
2022/03/01 00:41:48;;;;;;;23.27;16.00;;;6.00;65.20;;;;;;4962226;28;20069;-73
2022/03/01 00:44:13;;;;;;;23.40;16.90;;;6.00;65.20;;;;;;4965433;28;20038;-73
2022/03/01 00:46:39;;;;;;;24.17;16.73;;;5.90;65.50;;;;;;4964651;28;20035;-75
2022/03/01 00:49:05;;;;;;;23.25;16.58;;;6.00;65.50;;;;;;4961146;28;20039;-73
2022/03/01 00:51:31;;;;;;;23.50;16.52;;;5.90;65.60;;;;;;4968783;28;20041;-73
2022/03/01 00:53:57;;;;;;;25.10;17.42;;;6.00;65.40;;;;;;4963135;28;20502;-74
2022/03/01 00:56:22;;;;;;;23.02;16.70;;;6.00;65.40;;;;;;4961447;28;20038;-75
2022/03/01 00:58:48;;;;;;;23.50;16.77;;;6.00;65.30;;;;;;4970847;28;20039;-73
2022/03/01 01:01:14;;;;;;;25.10;17.17;;;6.10;65.30;;;;;;4964527;28;20415;-73
2022/03/01 01:03:39;;;;;;;25.35;17.05;;;6.00;65.40;;;;;;4962497;28;20039;-74
2022/03/01 01:06:05;;;;;;;25.63;17.15;;;6.10;65.20;;;;;;4959006;28;20153;-73
2022/03/01 01:08:30;;;;;;;26.38;17.85;;;6.10;65.40;;;;;;4960147;28;20058;-75
2022/03/01 01:10:56;;;;;;;24.35;17.67;;;6.10;65.60;;;;;;4952577;28;20075;-74
2022/03/01 01:13:22;;;;;;;25.08;16.55;;;6.00;65.50;;;;;;4957811;28;20478;-73
2022/03/01 01:15:48;;;;;;;25.60;17.30;;;6.10;65.60;;;;;;4962842;28;20042;-73
2022/03/01 01:18:14;;;;;;;24.23;16.92;;;6.00;65.60;;;;;;4962369;28;20117;-75
2022/03/01 01:20:40;;;;;;;26.08;17.98;;;6.00;65.70;;;;;;4959453;28;20340;-74
2022/03/01 01:23:05;;;;;;;28.92;17.63;;;6.00;65.90;;;;;;4974065;28;20386;-74
2022/03/01 01:25:32;;;;;;;23.83;17.90;;;6.00;65.90;;;;;;4961788;28;20037;-75
2022/03/01 01:27:59;;;;;;;27.70;17.40;;;6.00;66.10;;;;;;4962497;28;20067;-74
2022/03/01 01:30:28;;;;;;;27.35;18.17;;;6.00;65.90;;;;;;4970560;28;20069;-73
2022/03/01 01:32:54;;;;;;;23.75;16.88;;;6.10;65.80;;;;;;4962094;28;20054;-72
2022/03/01 01:35:22;;;;;;;24.20;16.98;;;6.10;65.70;;;;;;4960185;28;20423;-73
2022/03/01 01:37:49;;;;;;;23.13;17.27;;;6.10;65.80;;;;;;4957245;28;20057;-73
2022/03/01 01:40:17;;;;;;;24.77;16.50;;;6.10;65.60;;;;;;4968168;28;20043;-73
2022/03/01 01:42:44;;;;;;;22.38;17.52;;;6.10;65.60;;;;;;4968363;28;20186;-73
2022/03/01 01:45:10;;;;;;;23.23;16.75;;;6.10;65.80;;;;;;4962309;28;20034;-75
2022/03/01 01:47:36;;;;;;;23.73;17.13;;;6.10;66.00;;;;;;4964678;28;20030;-74
2022/03/01 01:50:03;;;;;;;25.88;16.80;;;6.10;65.80;;;;;;4965052;28;20084;-73
2022/03/01 01:52:29;;;;;;;23.20;16.30;;;6.10;65.90;;;;;;4965664;28;20483;-74
2022/03/01 01:54:55;;;;;;;23.55;16.20;;;6.10;66.10;;;;;;4963142;28;20396;-74
2022/03/01 01:57:22;;;;;;;24.55;17.20;;;6.10;66.20;;;;;;4958398;28;20510;-74
2022/03/01 01:59:50;;;;;;;24.13;16.88;;;6.10;66.30;;;;;;4955373;28;20363;-74
2022/03/01 02:02:20;;;;;;;23.02;15.85;;;6.10;66.30;;;;;;4973022;28;20482;-74
2022/03/01 02:04:45;;;;;;;26.77;17.67;;;6.00;66.40;;;;;;4964888;28;20475;-75
2022/03/01 02:07:12;;;;;;;24.08;17.75;;;6.00;66.40;;;;;;4967457;28;20126;-75
2022/03/01 02:09:39;;;;;;;24.92;17.80;;;6.00;66.50;;;;;;4964036;28;20030;-74
2022/03/01 02:12:05;;;;;;;27.50;18.67;;;5.90;66.60;;;;;;4969105;28;20502;-75
2022/03/01 02:14:33;;;;;;;23.65;17.08;;;5.90;66.60;;;;;;4972519;28;20114;-74
2022/03/01 02:17:00;;;;;;;23.52;17.17;;;6.00;66.40;;;;;;4985757;28;20130;-74
2022/03/01 02:19:26;;;;;;;22.98;16.52;;;5.90;66.20;;;;;;4970142;28;20081;-74
2022/03/01 02:21:55;;;;;;;27.15;18.38;;;6.00;66.20;;;;;;4971457;28;20034;-74
2022/03/01 02:24:22;;;;;;;24.08;18.05;;;6.00;66.10;;;;;;4965580;28;21493;-76
2022/03/01 02:26:48;;;;;;;24.85;17.35;;;6.00;66.10;;;;;;4975249;28;20061;-76
2022/03/01 02:29:14;;;;;;;23.05;17.85;;;6.00;66.00;;;;;;4962579;28;20023;-74
2022/03/01 02:31:39;;;;;;;26.05;18.17;;;6.00;66.00;;;;;;4965123;28;20100;-75
2022/03/01 02:34:05;;;;;;;24.67;18.80;;;6.10;66.00;;;;;;4966774;28;20090;-74
2022/03/01 02:36:31;;;;;;;25.40;17.48;;;6.10;66.20;;;;;;4960872;28;20424;-74
2022/03/01 02:38:57;;;;;;;26.20;17.90;;;6.00;66.20;;;;;;4965832;28;20531;-73
2022/03/01 02:41:25;;;;;;;25.40;18.05;;;6.00;66.20;;;;;;4962240;28;20354;-74
2022/03/01 02:43:50;;;;;;;23.70;17.65;;;6.00;66.20;;;;;;4972703;28;20038;-74
2022/03/01 02:46:16;;;;;;;26.50;17.60;;;6.00;66.40;;;;;;4949842;28;20073;-73
2022/03/01 02:48:42;;;;;;;23.67;17.02;;;6.00;66.30;;;;;;4970815;28;20503;-74
2022/03/01 02:51:08;;;;;;;24.45;17.67;;;6.00;66.30;;;;;;4972865;28;20126;-75
2022/03/01 02:53:34;;;;;;;24.98;17.92;;;6.00;66.40;;;;;;4958869;28;20058;-74
2022/03/01 02:56:00;;;;;;;26.80;18.50;;;6.10;66.30;;;;;;4964922;28;20082;-74
2022/03/01 02:58:26;;;;;;;26.67;17.77;;;6.10;66.20;;;;;;4956896;28;20027;-75
2022/03/01 03:00:52;;;;;;;25.02;17.63;;;6.00;66.20;;;;;;4968819;28;20310;-73
2022/03/01 03:03:18;;;;;;;28.33;18.20;;;6.10;66.40;;;;;;4960137;28;20026;-74
2022/03/01 03:05:43;;;;;;;24.05;17.85;;;6.00;66.20;;;;;;4958228;28;20043;-75
2022/03/01 03:08:09;;;;;;;27.38;19.58;;;6.10;66.40;;;;;;4963135;28;20489;-74
2022/03/01 03:10:34;;;;;;;25.98;18.38;;;6.10;66.30;;;;;;4969437;28;20047;-74
2022/03/01 03:13:01;;;;;;;27.10;18.58;;;6.10;66.30;;;;;;4955665;28;20419;-73
2022/03/01 03:15:27;;;;;;;24.35;18.58;;;6.10;66.30;;;;;;4960943;28;20143;-74
2022/03/01 03:17:54;;;;;;;27.73;19.38;;;6.10;66.30;;;;;;4971326;28;20065;-73
2022/03/01 03:20:20;;;;;;;27.42;21.00;;;6.10;66.40;;;;;;4962718;28;20576;-75
2022/03/01 03:22:46;;;;;;;25.38;18.40;;;6.10;66.40;;;;;;4960796;28;20035;-74
2022/03/01 03:25:11;;;;;;;31.25;19.92;;;6.10;66.30;;;;;;4961988;28;20398;-75
2022/03/01 03:27:38;;;;;;;24.85;19.10;;;6.10;66.50;;;;;;4964453;28;20038;-74
2022/03/01 03:30:05;;;;;;;26.95;18.67;;;6.10;66.40;;;;;;4965657;28;20039;-75
2022/03/01 03:32:31;;;;;;;28.15;19.50;;;6.10;66.40;;;;;;4960569;28;20089;-74
2022/03/01 03:34:56;;;;;;;25.75;18.25;;;6.10;66.50;;;;;;4959407;28;20027;-75
2022/03/01 03:37:22;;;;;;;25.65;19.17;;;6.10;66.20;;;;;;4959055;28;20216;-73
2022/03/01 03:39:48;;;;;;;28.25;19.70;;;6.20;66.00;;;;;;4962374;28;20280;-74
2022/03/01 03:42:13;;;;;;;28.98;20.25;;;6.20;65.90;;;;;;4973819;28;20052;-75
2022/03/01 03:44:39;;;;;;;27.00;19.65;;;6.20;65.90;;;;;;4962773;28;20094;-74
2022/03/01 03:47:06;;;;;;;27.83;20.15;;;6.20;65.90;;;;;;4964512;28;20049;-74
2022/03/01 03:49:32;;;;;;;27.13;19.92;;;6.30;65.90;;;;;;4971682;28;20034;-74
2022/03/01 03:51:59;;;;;;;25.25;18.88;;;6.30;65.90;;;;;;4967248;28;20442;-74
2022/03/01 03:54:25;;;;;;;27.55;19.35;;;6.30;66.00;;;;;;4967195;28;20081;-74
2022/03/01 03:56:51;;;;;;;25.92;19.02;;;6.30;65.70;;;;;;4957677;28;20416;-73
2022/03/01 03:59:17;;;;;;;25.58;18.35;;;6.30;65.70;;;;;;4959042;28;20045;-74
2022/03/01 04:01:42;;;;;;;23.92;17.27;;;6.40;65.70;;;;;;4961051;28;20369;-75
2022/03/01 04:04:08;;;;;;;24.77;18.05;;;6.40;65.60;;;;;;4961369;28;20045;-74
2022/03/01 04:06:37;;;;;;;23.17;17.63;;;6.40;65.70;;;;;;4944578;28;20733;-75
2022/03/01 04:09:04;;;;;;;25.52;18.42;;;6.40;65.60;;;;;;4963637;28;20133;-74
2022/03/01 04:11:30;;;;;;;23.67;17.58;;;6.40;65.40;;;;;;4969058;28;20491;-74
2022/03/01 04:13:57;;;;;;;25.10;18.13;;;6.50;65.60;;;;;;4966850;28;20049;-73
2022/03/01 04:16:23;;;;;;;26.75;18.80;;;6.50;65.30;;;;;;4970697;28;20311;-76
2022/03/01 04:18:49;;;;;;;25.27;17.98;;;6.40;65.50;;;;;;4973558;28;20026;-74
2022/03/01 04:21:16;;;;;;;22.90;16.60;;;6.40;65.50;;;;;;4968233;28;20491;-75
2022/03/01 04:23:41;;;;;;;25.67;17.63;;;6.40;65.20;;;;;;4957269;28;20098;-75
2022/03/01 04:26:07;;;;;;;24.65;17.45;;;6.40;65.00;;;;;;4963305;28;20126;-73
2022/03/01 04:28:33;;;;;;;24.73;16.48;;;6.40;64.40;;;;;;4961766;28;20035;-75
2022/03/01 04:30:59;;;;;;;22.52;16.30;;;6.40;64.20;;;;;;4962974;28;20054;-75
2022/03/01 04:33:24;;;;;;;24.88;17.73;;;6.40;64.20;;;;;;4962265;28;20517;-75
2022/03/01 04:35:50;;;;;;;22.40;16.75;;;6.40;64.10;;;;;;4967711;28;20041;-75
2022/03/01 04:38:16;;;;;;;24.05;16.70;;;6.40;63.90;;;;;;4961256;28;20050;-75
2022/03/01 04:40:42;;;;;;;24.80;16.63;;;6.40;63.70;;;;;;4963766;28;20030;-73
2022/03/01 04:43:08;;;;;;;22.90;16.30;;;6.30;63.60;;;;;;4960265;28;20030;-74
2022/03/01 04:45:34;;;;;;;21.30;16.25;;;6.30;63.70;;;;;;4967553;28;20399;-75
2022/03/01 04:48:00;;;;;;;24.63;17.13;;;6.30;63.90;;;;;;4971919;28;20086;-75
2022/03/01 04:50:26;;;;;;;25.88;17.40;;;6.20;63.90;;;;;;4952138;28;20811;-74
2022/03/01 04:52:53;;;;;;;23.33;15.25;;;6.20;64.00;;;;;;4970708;28;20038;-75
2022/03/01 04:55:18;;;;;;;20.80;14.98;;;6.20;63.80;;;;;;4966970;28;20042;-73
2022/03/01 04:57:44;;;;;;;21.83;15.35;;;6.10;63.80;;;;;;4958967;28;20039;-73
2022/03/01 05:00:12;;;;;;;24.08;15.88;;;6.10;64.00;;;;;;4944635;28;20039;-74
2022/03/01 05:02:43;;;;;;;21.25;14.27;;;6.10;63.40;;;;;;4965833;28;20569;-73
2022/03/01 05:05:12;;;;;;;23.20;15.00;;;6.10;63.40;;;;;;4959361;28;20035;-74
2022/03/01 05:07:39;;;;;;;21.80;14.88;;;6.10;63.40;;;;;;4944927;28;20446;-73
2022/03/01 05:10:07;;;;;;;25.55;15.65;;;6.10;63.60;;;;;;4970270;28;20489;-74
2022/03/01 05:12:39;;;;;;;22.30;15.00;;;6.10;63.60;;;;;;4962368;28;20043;-74
2022/03/01 05:15:05;;;;;;;21.40;14.32;;;6.10;63.50;;;;;;4972064;28;20462;-74
2022/03/01 05:17:31;;;;;;;22.60;14.10;;;6.10;63.10;;;;;;4965088;28;20410;-74
2022/03/01 05:19:56;;;;;;;22.17;15.80;;;6.00;63.40;;;;;;4959727;28;20031;-73
2022/03/01 05:22:22;;;;;;;23.08;15.30;;;6.10;63.30;;;;;;4975884;28;20633;-73
2022/03/01 05:24:48;;;;;;;22.58;15.15;;;6.10;63.40;;;;;;4949729;28;20030;-73
2022/03/01 05:27:14;;;;;;;24.75;16.00;;;6.10;63.60;;;;;;4944164;28;20381;-73
2022/03/01 05:29:40;;;;;;;21.90;15.27;;;6.10;63.70;;;;;;4970907;28;20034;-74
2022/03/01 05:32:06;;;;;;;23.60;15.80;;;6.10;63.60;;;;;;4973733;28;20042;-74
2022/03/01 05:34:32;;;;;;;22.60;15.20;;;6.10;63.60;;;;;;4967120;28;20050;-73
2022/03/01 05:36:57;;;;;;;22.35;14.43;;;6.10;63.80;;;;;;4966105;28;20122;-75
2022/03/01 05:39:23;;;;;;;24.08;16.25;;;6.10;63.90;;;;;;4963211;28;20042;-74
2022/03/01 05:41:49;;;;;;;22.27;15.35;;;6.10;63.90;;;;;;4963201;28;20035;-74
2022/03/01 05:44:15;;;;;;;24.23;16.17;;;6.10;64.00;;;;;;4963345;28;20513;-74
2022/03/01 05:46:40;;;;;;;22.52;15.45;;;6.10;63.90;;;;;;4968633;28;20066;-75
2022/03/01 05:49:07;;;;;;;25.13;16.00;;;6.10;64.10;;;;;;4960714;28;20038;-72
2022/03/01 05:51:33;;;;;;;22.80;14.38;;;6.10;64.30;;;;;;4968687;28;20038;-74
2022/03/01 05:53:58;;;;;;;22.65;15.48;;;6.00;64.40;;;;;;4970673;28;20160;-73
2022/03/01 05:56:24;;;;;;;22.35;15.50;;;6.00;64.40;;;;;;4970398;28;20039;-71
2022/03/01 05:58:50;;;;;;;22.05;15.15;;;6.10;64.60;;;;;;4959857;28;20338;-76
2022/03/01 06:01:16;;;;;;;25.85;14.52;;;6.00;64.70;;;;;;4968370;28;20375;-74
2022/03/01 06:03:41;;;;;;;22.67;15.13;;;6.00;64.90;;;;;;4962487;28;20105;-73
2022/03/01 06:06:07;;;;;;;23.85;15.48;;;6.00;64.90;;;;;;4962786;28;20042;-72
2022/03/01 06:08:33;;;;;;;23.55;15.40;;;6.10;64.90;;;;;;4963190;28;20428;-73
2022/03/01 06:10:58;;;;;;;22.77;15.77;;;6.00;64.90;;;;;;4947919;28;20063;-74
2022/03/01 06:13:24;;;;;;;24.58;15.15;;;6.00;65.00;;;;;;4960455;28;20040;-73
2022/03/01 06:15:50;;;;;;;24.48;15.45;;;6.00;65.00;;;;;;4968010;28;20039;-73
2022/03/01 06:18:16;;;;;;;21.27;15.25;;;6.00;64.90;;;;;;4964886;28;20033;-75
2022/03/01 06:20:44;;;;;;;22.40;14.93;;;6.10;64.80;;;;;;4969889;28;20133;-75
2022/03/01 06:23:10;;;;;;;23.33;15.77;;;6.00;64.90;;;;;;4978314;28;20040;-75
2022/03/01 06:25:36;;;;;;;19.48;13.65;;;6.00;65.00;;;;;;4966366;28;20045;-73
2022/03/01 06:28:02;;;;;;;21.77;14.70;;;6.10;65.00;;;;;;4965431;28;20046;-75
2022/03/01 06:30:28;;;;;;;23.63;15.05;;;6.10;65.00;;;;;;4970757;28;20217;-73
2022/03/01 06:32:53;;;;;;;24.65;15.73;;;6.00;65.10;;;;;;4960028;28;20035;-73
2022/03/01 06:35:19;;;;;;;22.85;16.20;;;6.00;65.30;;;;;;4975594;28;20081;-73
2022/03/01 06:37:45;;;;;;;24.95;16.27;;;6.10;65.40;;;;;;4960662;28;20304;-73
2022/03/01 06:40:12;;;;;;;22.67;16.90;;;6.10;65.50;;;;;;4958227;28;20466;-74
2022/03/01 06:42:38;;;;;;;24.85;16.02;;;6.10;65.40;;;;;;4953017;28;20038;-74
2022/03/01 06:45:06;;;;;;;21.80;16.48;;;6.00;65.60;;;;;;4959273;28;20413;-73
2022/03/01 06:47:32;;;;;;;25.42;16.60;;;6.00;65.80;;;;;;4961283;28;20125;-74
2022/03/01 06:49:58;;;;;;;24.52;16.08;;;6.00;65.70;;;;;;4958037;28;20395;-74
2022/03/01 06:52:23;;;;;;;25.27;17.10;;;6.00;65.80;;;;;;4954868;28;20092;-74
2022/03/01 06:54:49;;;;;;;21.42;15.52;;;6.00;65.90;;;;;;4950487;28;20043;-74
2022/03/01 06:57:15;;;;;;;24.02;15.85;;;6.00;65.60;;;;;;4949966;28;20074;-74
2022/03/01 06:59:40;;;;;;;27.35;15.98;;;6.10;65.70;;;;;;4951787;28;20555;-73
2022/03/01 07:02:06;;;;;;;23.17;16.27;;;6.10;65.90;;;;;;4954260;28;20079;-73
2022/03/01 07:04:32;;;;;;;26.35;15.38;;;6.10;65.80;;;;;;4948659;28;20051;-75
2022/03/01 07:06:58;;;;;;;28.00;16.58;;;6.10;65.90;;;;;;4948384;28;20039;-74
2022/03/01 07:09:23;;;;;;;22.65;16.08;;;6.10;65.90;;;;;;4958439;28;20125;-73
2022/03/01 07:11:49;;;;;;;26.95;17.17;;;6.10;65.80;;;;;;4953515;28;20052;-74
2022/03/01 07:14:15;;;;;;;24.95;16.83;;;6.10;65.70;;;;;;4957683;28;20038;-74
2022/03/01 07:16:41;;;;;;;23.40;15.85;;;6.10;65.80;;;;;;4953872;28;20049;-74
2022/03/01 07:19:06;;;;;;;25.85;17.08;;;6.20;65.60;;;;;;4954472;28;20596;-73
2022/03/01 07:21:32;;;;;;;24.83;16.70;;;6.20;65.80;;;;;;4952486;28;20710;-73
2022/03/01 07:23:58;;;;;;;24.70;15.43;;;6.20;65.60;;;;;;4953347;28;20047;-74
2022/03/01 07:26:23;;;;;;;27.38;16.95;;;6.20;65.90;;;;;;4948157;28;20398;-73
2022/03/01 07:28:49;;;;;;;23.02;15.85;;;6.20;66.10;;;;;;4953506;28;20074;-73
2022/03/01 07:31:15;;;;;;;23.15;16.27;;;6.20;66.40;;;;;;4951086;28;20157;-73
2022/03/01 07:33:44;;;;;;;24.42;15.65;;;6.30;66.90;;;;;;4947769;28;20034;-73
2022/03/01 07:36:10;;;;;;;25.95;17.33;;;6.30;67.20;;;;;;4933584;28;20035;-73
2022/03/01 07:38:36;;;;;;;25.85;17.15;;;6.30;67.30;;;;;;4949655;28;20557;-73
2022/03/01 07:41:01;;;;;;;24.27;16.45;;;6.30;67.60;;;;;;4956886;28;20111;-75
2022/03/01 07:43:27;;;;;;;24.75;16.90;;;6.40;67.60;;;;;;4953567;28;20438;-73
2022/03/01 07:45:53;;;;;;;24.58;15.55;;;6.50;67.90;;;;;;4954201;28;20352;-73
2022/03/01 07:48:18;;;;;;;26.58;17.15;;;6.50;68.10;;;;;;4950305;28;20155;-73
2022/03/01 07:50:44;;;;;;;33.17;17.73;;;6.50;68.00;;;;;;4952335;28;20386;-73
2022/03/01 07:53:10;;;;;;;26.95;16.55;;;6.40;68.70;;;;;;4954340;28;20459;-73
2022/03/01 07:55:35;;;;;;;26.77;17.15;;;6.40;68.60;;;;;;4951964;28;20487;-74
2022/03/01 07:58:02;;;;;;;30.27;18.85;;;6.40;68.60;;;;;;4937434;28;20039;-74
2022/03/01 08:00:27;;;;;;;37.30;21.70;;;6.40;68.50;;;;;;4957145;28;20049;-72
2022/03/01 08:02:54;;;;;;;31.55;20.13;;;6.40;68.60;;;;;;4960047;28;20039;-73
2022/03/01 08:05:20;;;;;;;49.03;32.00;;;6.40;68.50;;;;;;4939467;28;20133;-73
2022/03/01 08:07:46;;;;;;;79.78;45.80;;;6.50;68.60;;;;;;4958320;28;20106;-73
2022/03/01 08:10:12;;;;;;;44.33;28.70;;;6.50;68.50;;;;;;4949489;28;20050;-73
2022/03/01 08:12:37;;;;;;;31.40;19.55;;;6.50;68.20;;;;;;4953308;28;20054;-73
2022/03/01 08:15:03;;;;;;;24.98;17.23;;;6.50;68.20;;;;;;4961221;28;20114;-74
2022/03/01 08:17:29;;;;;;;27.92;18.10;;;6.50;68.20;;;;;;4954264;28;20269;-74
2022/03/01 08:19:55;;;;;;;27.08;17.33;;;6.50;68.30;;;;;;4949885;28;20874;-75
2022/03/01 08:22:20;;;;;;;27.45;17.13;;;6.50;68.50;;;;;;4960099;28;20469;-72
2022/03/01 08:24:46;;;;;;;24.92;18.10;;;6.50;68.30;;;;;;4962145;28;20073;-73
2022/03/01 08:27:12;;;;;;;23.52;17.15;;;6.60;68.30;;;;;;4960726;28;20031;-74
2022/03/01 08:29:37;;;;;;;25.33;18.52;;;6.60;68.20;;;;;;4961859;28;20070;-73
2022/03/01 08:32:03;;;;;;;23.52;16.70;;;6.60;68.00;;;;;;4944319;28;20149;-75
2022/03/01 08:34:29;;;;;;;23.83;16.55;;;6.60;67.80;;;;;;4959217;28;20039;-74
2022/03/01 08:36:56;;;;;;;29.73;17.15;;;6.60;67.40;;;;;;4951052;28;20050;-76
2022/03/01 08:39:22;;;;;;;25.48;16.63;;;6.60;67.60;;;;;;4958249;28;20171;-75
2022/03/01 08:41:50;;;;;;;27.02;17.58;;;6.70;67.90;;;;;;4969888;28;20512;-73
2022/03/01 08:44:15;;;;;;;26.00;18.48;;;6.70;68.10;;;;;;4941507;28;20456;-74
2022/03/01 08:46:41;;;;;;;24.50;17.55;;;6.70;68.10;;;;;;4959342;28;20716;-73
2022/03/01 08:49:07;;;;;;;23.73;17.00;;;6.80;68.30;;;;;;4952484;28;20085;-74
2022/03/01 08:51:34;;;;;;;25.40;16.83;;;6.80;68.70;;;;;;4953094;28;20066;-74
2022/03/01 08:54:00;;;;;;;23.77;17.13;;;6.90;68.80;;;;;;4957812;28;20054;-74
2022/03/01 08:56:25;;;;;;;27.13;19.10;;;7.00;69.10;;;;;;4951365;28;20031;-76
2022/03/01 08:58:51;;;;;;;25.02;17.92;;;7.00;69.10;;;;;;4950761;28;20191;-77
2022/03/01 09:01:18;;;;;;;24.85;17.85;;;7.00;69.00;;;;;;4964279;28;20045;-76
2022/03/01 09:03:44;;;;;;;29.90;17.77;;;7.10;69.10;;;;;;4960940;28;20142;-78
2022/03/01 09:06:11;;;;;;;27.25;17.73;;;7.10;69.00;;;;;;4958330;28;20042;-76
2022/03/01 09:08:40;;;;;;;28.27;17.58;;;7.10;69.20;;;;;;4951836;28;20142;-78
2022/03/01 09:11:07;;;;;;;25.02;17.25;;;7.10;68.70;;;;;;4951979;28;20541;-77
2022/03/01 09:13:34;;;;;;;27.90;18.13;;;7.10;68.60;;;;;;4955249;28;20039;-77
2022/03/01 09:16:00;;;;;;;25.13;17.92;;;7.10;68.90;;;;;;4960276;28;20066;-77
2022/03/01 09:18:26;;;;;;;27.52;18.00;;;7.20;69.10;;;;;;4955366;28;20138;-76
2022/03/01 09:20:52;;;;;;;24.25;17.33;;;7.30;68.70;;;;;;4961441;28;20114;-75
2022/03/01 09:23:18;;;;;;;24.52;17.75;;;7.30;68.20;;;;;;4958630;28;20090;-76
2022/03/01 09:25:44;;;;;;;24.58;18.05;;;7.40;68.70;;;;;;4955409;28;20031;-76
2022/03/01 09:28:10;;;;;;;30.50;18.70;;;7.50;68.80;;;;;;4953468;28;20049;-77
2022/03/01 09:30:36;;;;;;;31.48;18.67;;;7.60;68.50;;;;;;4957283;28;20045;-77
2022/03/01 09:33:02;;;;;;;30.10;19.42;;;7.50;67.70;;;;;;4958275;28;20146;-78
2022/03/01 09:35:28;;;;;;;26.92;18.17;;;7.50;67.90;;;;;;4954769;28;20031;-77
2022/03/01 09:37:54;;;;;;;26.80;18.50;;;7.40;67.90;;;;;;4957420;28;20044;-78
2022/03/01 09:40:20;;;;;;;26.98;18.73;;;7.40;68.40;;;;;;4954508;28;20047;-78
2022/03/01 09:42:46;;;;;;;26.15;18.40;;;7.40;68.70;;;;;;4954683;28;20132;-80
2022/03/01 09:45:13;;;;;;;27.23;20.38;;;7.50;68.90;;;;;;4956468;28;20596;-75
2022/03/01 09:47:40;;;;;;;31.08;19.40;;;7.50;68.80;;;;;;4954180;28;20042;-76
2022/03/01 09:50:07;;;;;;;28.35;19.92;;;7.60;68.80;;;;;;4953537;28;20053;-77
2022/03/01 09:52:33;;;;;;;25.42;17.27;;;7.50;68.60;;;;;;4956105;28;20035;-78
2022/03/01 09:55:00;;;;;;;26.00;19.33;;;7.60;68.60;;;;;;4958364;28;20050;-75
2022/03/01 09:57:25;;;;;;;27.85;19.02;;;7.60;68.70;;;;;;4957252;28;20039;-77
2022/03/01 09:59:53;;;;;;;29.00;20.38;;;7.70;68.60;;;;;;4956410;28;20035;-78
2022/03/01 10:02:19;;;;;;;25.75;18.52;;;7.80;68.60;;;;;;4955527;28;20379;-78
2022/03/01 10:04:56;;;;;;;26.67;19.33;;;7.80;67.10;;;;;;4957741;28;20126;-77
2022/03/01 10:07:27;;;;;;;26.95;19.88;;;7.80;67.00;;;;;;4956100;28;20031;-75
2022/03/01 10:09:53;;;;;;;30.90;18.80;;;7.70;67.50;;;;;;4955825;28;20062;-81
2022/03/01 10:12:26;;;;;;;26.63;18.88;;;7.70;67.90;;;;;;4958204;28;20041;-75
2022/03/01 10:15:02;;;;;;;27.25;19.73;;;7.60;68.00;;;;;;4958316;28;20439;-76
2022/03/01 10:17:42;;;;;;;26.92;19.95;;;7.60;68.60;;;;;;4943154;28;20051;-74
2022/03/01 10:20:11;;;;;;;25.42;18.77;;;7.70;68.80;;;;;;4943810;28;20147;-76
2022/03/01 10:22:44;;;;;;;31.70;20.35;;;7.80;68.30;;;;;;4967186;28;20062;-76
2022/03/01 10:25:13;;;;;;;26.98;17.65;;;7.70;68.20;;;;;;4962389;28;20034;-79
2022/03/01 10:27:39;;;;;;;32.13;18.88;;;7.70;67.90;;;;;;4959282;28;20066;-78
2022/03/01 10:30:07;;;;;;;26.48;18.58;;;7.80;67.90;;;;;;4960833;28;20078;-77
2022/03/01 10:32:34;;;;;;;29.33;18.67;;;7.80;68.00;;;;;;4959522;28;20121;-79
2022/03/01 10:35:02;;;;;;;30.38;19.08;;;7.80;67.10;;;;;;4939716;28;20038;-76
2022/03/01 10:37:30;;;;;;;25.80;18.40;;;7.90;67.10;;;;;;4956004;28;20505;-76
2022/03/01 10:40:19;;;;;;;25.92;18.65;;;8.00;67.40;;;;;;4956711;28;20053;-79
2022/03/01 10:43:07;;;;;;;25.98;18.83;;;8.10;67.10;;;;;;4954076;28;20419;-77
2022/03/01 10:45:42;;;;;;;26.42;18.42;;;8.20;67.30;;;;;;4956069;28;20490;-79
2022/03/01 10:48:11;;;;;;;27.08;18.33;;;8.50;66.80;;;;;;4968103;28;20089;-77
2022/03/01 10:50:38;;;;;;;24.13;17.58;;;8.50;66.00;;;;;;4965275;28;20047;-79
2022/03/01 10:53:06;;;;;;;27.30;17.42;;;8.60;66.00;;;;;;4959296;28;20050;-77
2022/03/01 10:55:33;;;;;;;27.25;18.33;;;8.60;65.60;;;;;;4956452;28;20042;-79
2022/03/01 10:58:11;;;;;;;25.88;17.98;;;8.60;64.70;;;;;;4949569;28;20463;-77
2022/03/01 11:00:38;;;;;;;27.88;18.30;;;8.70;64.80;;;;;;4958827;28;20060;-78
2022/03/01 11:03:08;;;;;;;27.27;18.65;;;8.80;64.90;;;;;;4947781;28;20038;-77
2022/03/01 11:05:35;;;;;;;24.88;18.40;;;9.00;63.80;;;;;;4941995;28;20445;-78
2022/03/01 11:08:04;;;;;;;25.60;17.80;;;9.10;63.30;;;;;;4958238;28;20035;-77
2022/03/01 11:10:32;;;;;;;25.45;18.85;;;9.30;62.50;;;;;;4964483;28;20054;-77
2022/03/01 11:13:00;;;;;;;26.88;18.55;;;9.50;62.30;;;;;;4962155;28;20050;-78
2022/03/01 11:15:53;;;;;;;27.25;18.38;;;9.50;61.90;;;;;;4943181;28;20597;-81
2022/03/01 11:18:30;;;;;;;28.33;18.70;;;9.50;61.40;;;;;;4956418;28;20058;-81
2022/03/01 11:20:57;;;;;;;28.17;19.20;;;9.50;60.60;;;;;;4955907;28;20578;-79
2022/03/01 11:23:25;;;;;;;25.50;17.95;;;9.60;60.90;;;;;;4956752;28;20039;-78
2022/03/01 11:25:53;;;;;;;23.88;18.58;;;9.70;60.10;;;;;;4958339;28;20049;-77
2022/03/01 11:28:29;;;;;;;26.63;18.63;;;9.70;60.00;;;;;;4963878;28;20115;-78
2022/03/01 11:30:55;;;;;;;26.50;17.65;;;9.80;59.90;;;;;;4973069;28;20100;-76
2022/03/01 11:33:26;;;;;;;25.50;18.90;;;9.90;59.90;;;;;;4960959;28;20043;-78
2022/03/01 11:35:54;;;;;;;24.05;17.73;;;9.90;59.90;;;;;;4951696;28;20099;-77
2022/03/01 11:38:24;;;;;;;26.50;19.25;;;10.10;59.90;;;;;;4955000;28;20117;-76
2022/03/01 11:40:51;;;;;;;26.83;19.75;;;10.10;60.10;;;;;;4938727;28;20565;-77
2022/03/01 11:43:26;;;;;;;24.88;18.35;;;10.00;59.50;;;;;;4949380;28;20285;-79
2022/03/01 11:45:54;;;;;;;26.88;18.77;;;10.10;60.10;;;;;;4952590;28;20045;-77
2022/03/01 11:48:22;;;;;;;26.33;18.58;;;10.10;60.00;;;;;;4953191;28;20732;-75
2022/03/01 11:50:54;;;;;;;27.10;18.23;;;10.10;60.30;;;;;;4952696;28;20046;-76
2022/03/01 11:53:20;;;;;;;30.23;20.30;;;10.20;60.20;;;;;;4943311;28;20077;-76
2022/03/01 11:55:50;;;;;;;25.90;19.92;;;10.30;59.90;;;;;;4968066;28;20035;-76
2022/03/01 11:58:17;;;;;;;27.60;19.77;;;10.40;60.00;;;;;;4955601;28;20062;-78
2022/03/01 12:00:43;;;;;;;26.20;18.52;;;10.40;59.70;;;;;;4958917;28;20038;-81
2022/03/01 12:03:12;;;;;;;27.13;18.50;;;10.60;59.40;;;;;;4957665;28;20394;-79
2022/03/01 12:05:39;;;;;;;28.65;19.42;;;10.70;58.80;;;;;;4970522;28;20434;-80
2022/03/01 12:08:08;;;;;;;30.95;20.35;;;10.90;58.20;;;;;;4959058;28;21233;-80
2022/03/01 12:10:34;;;;;;;25.17;18.92;;;11.00;58.80;;;;;;4973607;28;20046;-77
2022/03/01 12:13:05;;;;;;;26.15;18.75;;;11.00;58.70;;;;;;4957248;28;20131;-77
2022/03/01 12:15:34;;;;;;;24.63;19.33;;;11.00;58.30;;;;;;4956761;28;20035;-76
2022/03/01 12:18:17;;;;;;;26.85;19.05;;;11.00;57.80;;;;;;4954728;28;20069;-78
2022/03/01 12:20:46;;;;;;;24.92;18.13;;;11.00;58.40;;;;;;4955789;28;20046;-77
2022/03/01 12:23:27;;;;;;;27.45;19.52;;;10.90;58.10;;;;;;4936848;28;20461;-78
2022/03/01 12:25:54;;;;;;;29.25;19.25;;;10.70;58.60;;;;;;4953795;28;20065;-78
2022/03/01 12:28:22;;;;;;;27.52;19.33;;;10.60;59.30;;;;;;4953416;28;20031;-76
2022/03/01 12:30:48;;;;;;;25.38;19.45;;;10.70;58.90;;;;;;4953306;28;20609;-78
2022/03/01 12:33:17;;;;;;;25.23;18.10;;;10.60;59.20;;;;;;4953291;28;20279;-82